Time;durP1;ratioP1;P1;durP2;ratioP2;P2;SDS_P1;SDS_P2;PMS_P1;PMS_P2;Temp;Humidity;BMP_temperature;BMP_pressure;BME280_temperature;BME280_humidity;BME280_pressure;Samples;Min_cycle;Max_cycle;Signal;HPM_P1;HPM_P2
2022/04/16 00:00:52;;;;;;;2.90;2.70;;;9.70;99.90;;;;;;5041616;28;20648;-86
2022/04/16 00:03:17;;;;;;;2.60;2.40;;;9.70;99.90;;;;;;5051837;28;20506;-86
2022/04/16 00:05:44;;;;;;;2.60;2.40;;;9.70;99.90;;;;;;5031405;28;21673;-88
2022/04/16 00:08:09;;;;;;;2.73;2.53;;;9.50;99.90;;;;;;5047089;28;20191;-86
2022/04/16 00:10:37;;;;;;;2.80;2.60;;;9.50;99.90;;;;;;5030708;28;20445;-87
2022/04/16 00:13:03;;;;;;;3.40;2.37;;;9.60;99.90;;;;;;5044537;28;21038;-86
2022/04/16 00:15:28;;;;;;;2.87;2.67;;;9.60;99.90;;;;;;5041904;28;20444;-86
2022/04/16 00:17:55;;;;;;;2.20;2.10;;;9.60;99.90;;;;;;5043312;28;20566;-87
2022/04/16 00:20:24;;;;;;;2.30;2.17;;;9.70;99.90;;;;;;5046498;28;20200;-87
2022/04/16 00:22:51;;;;;;;3.10;2.47;;;9.60;99.90;;;;;;5039075;28;20453;-87
2022/04/16 00:25:16;;;;;;;3.00;2.80;;;9.50;99.90;;;;;;5044657;28;20469;-86
2022/04/16 00:27:49;;;;;;;2.80;2.47;;;9.30;99.90;;;;;;5047547;28;20433;-86
2022/04/16 00:30:17;;;;;;;2.83;2.63;;;9.20;99.90;;;;;;5054874;28;20245;-87
2022/04/16 00:32:51;;;;;;;2.47;2.23;;;9.20;99.90;;;;;;5062823;28;20474;-86
2022/04/16 00:35:16;;;;;;;3.00;2.20;;;9.20;99.90;;;;;;5049362;28;20467;-87
2022/04/16 00:37:42;;;;;;;3.90;2.73;;;9.30;99.90;;;;;;5031693;28;20472;-87
2022/04/16 00:40:08;;;;;;;2.07;1.83;;;9.30;99.90;;;;;;5048520;28;20512;-86
2022/04/16 00:42:39;;;;;;;2.60;2.40;;;9.30;99.90;;;;;;5026335;28;20186;-86
2022/04/16 00:45:08;;;;;;;2.30;2.20;;;9.50;99.90;;;;;;5027796;28;20769;-86
2022/04/16 00:47:36;;;;;;;2.60;2.40;;;9.50;99.90;;;;;;5041752;28;20971;-86
2022/04/16 00:50:05;;;;;;;4.40;2.40;;;9.40;99.90;;;;;;5047374;28;20487;-87
2022/04/16 00:52:33;;;;;;;2.23;2.13;;;9.10;99.90;;;;;;5041345;28;21164;-87
2022/04/16 00:54:59;;;;;;;2.07;1.97;;;9.00;99.90;;;;;;5040919;28;20483;-86
2022/04/16 00:57:25;;;;;;;2.73;2.47;;;8.90;99.90;;;;;;5025953;28;20907;-87
2022/04/16 00:59:56;;;;;;;2.30;2.10;;;8.80;99.90;;;;;;5033030;28;20600;-87
2022/04/16 01:02:22;;;;;;;2.10;2.00;;;8.80;99.90;;;;;;5047153;28;21127;-87
2022/04/16 01:04:48;;;;;;;2.70;2.50;;;8.80;99.90;;;;;;5029833;28;20974;-87
2022/04/16 01:07:21;;;;;;;2.30;2.10;;;8.90;99.90;;;;;;5045455;28;20190;-86
2022/04/16 01:09:52;;;;;;;2.40;2.13;;;9.10;99.90;;;;;;5024718;28;20494;-87
2022/04/16 01:12:18;;;;;;;2.50;2.20;;;9.00;99.90;;;;;;5029555;28;20528;-86
2022/04/16 01:14:45;;;;;;;2.47;2.27;;;8.90;99.90;;;;;;5049135;28;20445;-87
2022/04/16 01:17:11;;;;;;;2.33;2.23;;;8.80;99.90;;;;;;5052253;28;20504;-87
2022/04/16 01:19:37;;;;;;;2.37;2.20;;;8.70;99.90;;;;;;5039020;28;20437;-88
2022/04/16 01:22:05;;;;;;;2.03;1.93;;;8.60;99.90;;;;;;5046222;28;20475;-86
2022/04/16 01:24:31;;;;;;;2.40;2.20;;;8.60;99.90;;;;;;5036290;28;20441;-87
2022/04/16 01:26:58;;;;;;;2.90;2.67;;;8.50;99.90;;;;;;5025195;28;20806;-87
2022/04/16 01:29:24;;;;;;;2.80;2.60;;;8.60;99.90;;;;;;5040868;28;20194;-88
2022/04/16 01:31:50;;;;;;;2.73;2.53;;;8.40;99.90;;;;;;5029270;28;20447;-87
2022/04/16 01:34:17;;;;;;;2.73;2.30;;;8.40;99.90;;;;;;5022930;28;20807;-87
2022/04/16 01:36:43;;;;;;;2.40;2.27;;;8.30;99.90;;;;;;5039448;28;20820;-86
2022/04/16 01:39:14;;;;;;;2.57;2.37;;;8.20;99.90;;;;;;5025050;28;20432;-87
2022/04/16 01:41:40;;;;;;;3.10;2.43;;;8.10;99.90;;;;;;5042190;28;20460;-87
2022/04/16 01:44:06;;;;;;;2.80;2.60;;;8.10;99.90;;;;;;5033413;28;20444;-87
2022/04/16 01:46:32;;;;;;;2.90;2.70;;;8.00;99.90;;;;;;5034448;28;20806;-87
2022/04/16 01:48:58;;;;;;;2.83;2.50;;;8.10;99.90;;;;;;5034661;28;20434;-87
2022/04/16 01:51:24;;;;;;;3.03;2.60;;;8.10;99.90;;;;;;5030605;28;20197;-85
2022/04/16 01:53:49;;;;;;;2.57;2.37;;;8.20;99.90;;;;;;5026420;28;20563;-87
2022/04/16 01:56:15;;;;;;;2.60;2.10;;;8.30;99.90;;;;;;5045571;28;20830;-87
2022/04/16 01:58:41;;;;;;;2.57;2.37;;;8.30;99.90;;;;;;5028525;28;20235;-86
2022/04/16 02:01:07;;;;;;;2.20;2.10;;;8.40;99.90;;;;;;5029113;28;20317;-87
2022/04/16 02:03:33;;;;;;;2.70;2.50;;;8.40;99.90;;;;;;5046369;28;20445;-86
2022/04/16 02:05:59;;;;;;;2.80;2.60;;;8.40;99.90;;;;;;5041695;28;20462;-86
2022/04/16 02:08:25;;;;;;;2.13;2.03;;;8.40;99.90;;;;;;5050720;28;20440;-86
2022/04/16 02:10:51;;;;;;;2.83;2.63;;;8.40;99.90;;;;;;5039179;28;20281;-86
2022/04/16 02:13:16;;;;;;;2.67;2.47;;;8.20;99.90;;;;;;5023417;28;20211;-86
2022/04/16 02:15:42;;;;;;;3.27;2.37;;;8.30;99.90;;;;;;5036421;28;20214;-86
2022/04/16 02:18:07;;;;;;;2.50;2.30;;;8.30;99.90;;;;;;5025136;28;20607;-86
2022/04/16 02:20:36;;;;;;;2.17;2.07;;;8.20;99.90;;;;;;5044067;28;20182;-86
2022/04/16 02:23:02;;;;;;;3.50;2.60;;;8.30;99.90;;;;;;5045908;28;20283;-87
2022/04/16 02:25:27;;;;;;;2.43;2.17;;;8.40;99.90;;;;;;5044429;28;20430;-86
2022/04/16 02:27:53;;;;;;;3.20;2.80;;;8.40;99.90;;;;;;5024025;28;20451;-87
2022/04/16 02:30:19;;;;;;;2.67;2.47;;;8.50;99.90;;;;;;5029113;28;20186;-87
2022/04/16 02:32:47;;;;;;;2.80;2.60;;;8.60;99.90;;;;;;5024166;28;20194;-87
2022/04/16 02:35:15;;;;;;;2.47;2.27;;;8.60;99.90;;;;;;5042801;28;20450;-86
2022/04/16 02:37:41;;;;;;;2.70;2.50;;;8.60;99.90;;;;;;5050118;28;20480;-86
2022/04/16 02:40:07;;;;;;;2.13;2.03;;;8.60;99.90;;;;;;5047633;28;20440;-86
2022/04/16 02:42:34;;;;;;;2.30;2.10;;;8.50;99.90;;;;;;5047911;28;20563;-87
2022/04/16 02:47:44;;;;;;;2.40;2.20;;;8.60;99.90;;;;;;5048627;28;20448;-86
2022/04/16 02:50:09;;;;;;;2.40;2.20;;;8.50;99.90;;;;;;5040799;28;20445;-86
2022/04/16 02:52:37;;;;;;;2.67;2.47;;;8.40;99.90;;;;;;5046716;28;20214;-86
2022/04/16 02:55:03;;;;;;;2.57;2.37;;;8.40;99.90;;;;;;5037967;28;20194;-86
2022/04/16 02:57:33;;;;;;;2.27;2.07;;;8.30;99.90;;;;;;5037160;28;20475;-86
2022/04/16 03:00:00;;;;;;;2.27;2.17;;;8.20;99.90;;;;;;5056479;28;20442;-88
2022/04/16 03:02:26;;;;;;;2.47;2.27;;;8.20;99.90;;;;;;5065553;28;20805;-86
2022/04/16 03:04:51;;;;;;;2.73;2.53;;;8.20;99.90;;;;;;5032246;28;20478;-87
2022/04/16 03:07:17;;;;;;;3.33;2.60;;;8.10;99.90;;;;;;5044784;28;20187;-86
2022/04/16 03:09:43;;;;;;;2.40;2.20;;;8.10;99.90;;;;;;5050984;28;20277;-87
2022/04/16 03:12:09;;;;;;;2.20;2.00;;;8.00;99.90;;;;;;5028430;28;20433;-86
2022/04/16 03:17:35;;;;;;;2.33;2.13;;;7.80;99.90;;;;;;5047893;28;20510;-86
2022/04/16 03:20:06;;;;;;;3.07;2.13;;;7.70;99.90;;;;;;5019723;28;20448;-86
2022/04/16 03:22:38;;;;;;;2.13;1.80;;;7.60;99.90;;;;;;5026679;28;20920;-87
2022/04/16 03:25:27;;;;;;;2.10;1.90;;;7.50;99.90;;;;;;5038801;28;20664;-88
2022/04/16 03:27:52;;;;;;;2.57;2.30;;;7.50;99.90;;;;;;5027757;28;21232;-87
2022/04/16 03:30:18;;;;;;;2.20;2.10;;;7.40;99.90;;;;;;5032773;28;20440;-87
2022/04/16 03:32:47;;;;;;;2.40;2.20;;;7.40;99.90;;;;;;5042017;28;20361;-87
2022/04/16 03:35:13;;;;;;;4.10;2.47;;;7.40;99.90;;;;;;5015093;28;20707;-87
2022/04/16 03:37:39;;;;;;;3.80;2.60;;;7.40;99.90;;;;;;5030252;28;20487;-88
2022/04/16 03:40:06;;;;;;;2.17;1.97;;;7.40;99.90;;;;;;5024438;28;20448;-87
2022/04/16 03:42:32;;;;;;;2.40;2.20;;;7.50;99.90;;;;;;5017431;28;20194;-87
2022/04/16 03:45:01;;;;;;;2.93;2.73;;;7.60;99.90;;;;;;5000609;28;20437;-87
2022/04/16 03:47:30;;;;;;;4.93;3.20;;;7.60;99.90;;;;;;5016551;28;20243;-88
2022/04/16 03:49:56;;;;;;;2.77;2.57;;;7.70;99.90;;;;;;5012199;28;21058;-87
2022/04/16 03:52:24;;;;;;;2.40;2.23;;;7.80;99.90;;;;;;5022084;28;20543;-88
2022/04/16 04:00:18;;;;;;;2.73;2.53;;;8.10;99.90;;;;;;5036040;28;20531;-87
2022/04/16 04:02:46;;;;;;;2.97;2.40;;;8.00;99.90;;;;;;5002731;28;21104;-88
2022/04/16 04:05:12;;;;;;;4.80;3.30;;;8.10;99.90;;;;;;5018900;28;20346;-88
2022/04/16 04:07:37;;;;;;;3.10;2.80;;;8.10;99.90;;;;;;5028578;28;20805;-88
2022/04/16 04:10:04;;;;;;;2.80;2.60;;;8.10;99.90;;;;;;5032570;28;20225;-89
2022/04/16 04:12:38;;;;;;;2.80;2.60;;;8.00;99.90;;;;;;5020198;28;21009;-89
2022/04/16 04:15:07;;;;;;;2.50;2.30;;;8.00;99.90;;;;;;5006233;28;20600;-88
2022/04/16 04:17:35;;;;;;;2.83;2.20;;;8.00;99.90;;;;;;5012861;28;20479;-88
2022/04/16 04:20:05;;;;;;;3.10;2.73;;;7.90;99.90;;;;;;5012079;28;20458;-88
2022/04/16 04:22:31;;;;;;;2.40;2.20;;;7.80;99.90;;;;;;5003501;28;21558;-87
2022/04/16 04:25:02;;;;;;;2.50;2.30;;;7.80;99.90;;;;;;5011635;28;20551;-88
2022/04/16 04:27:28;;;;;;;2.50;2.30;;;7.60;99.90;;;;;;5024597;28;20202;-87
2022/04/16 04:30:01;;;;;;;5.20;2.40;;;7.50;99.90;;;;;;5037081;28;20450;-88
2022/04/16 04:32:51;;;;;;;2.73;2.53;;;7.40;99.90;;;;;;5008446;28;20283;-87
2022/04/16 04:35:16;;;;;;;2.77;2.53;;;7.40;99.90;;;;;;5006215;28;20507;-89
2022/04/16 04:37:42;;;;;;;2.67;2.47;;;7.50;99.90;;;;;;5000925;28;20488;-89
2022/04/16 04:40:09;;;;;;;3.30;2.90;;;7.70;99.90;;;;;;5039246;28;20181;-89
2022/04/16 04:42:38;;;;;;;2.60;2.40;;;7.80;99.90;;;;;;5026949;28;20446;-88
2022/04/16 04:45:15;;;;;;;2.83;2.53;;;8.00;99.90;;;;;;5011865;28;21033;-88
2022/04/16 04:47:41;;;;;;;2.87;2.67;;;8.10;99.90;;;;;;5028158;28;20438;-88
2022/04/16 04:50:08;;;;;;;2.77;2.57;;;8.20;99.90;;;;;;5025924;28;21127;-88
2022/04/16 04:52:37;;;;;;;2.87;2.67;;;8.20;99.90;;;;;;5044864;28;20222;-88
2022/04/16 04:55:06;;;;;;;2.90;2.50;;;8.30;99.90;;;;;;5043608;28;21018;-88
2022/04/16 04:57:31;;;;;;;3.27;2.93;;;8.30;99.90;;;;;;5028625;28;20513;-85
2022/04/16 04:59:59;;;;;;;3.40;3.20;;;8.30;99.90;;;;;;5022409;28;20450;-85
2022/04/16 05:02:25;;;;;;;3.10;2.90;;;8.40;99.90;;;;;;5011540;28;20268;-88
2022/04/16 05:04:50;;;;;;;2.80;2.60;;;8.50;99.90;;;;;;5016897;28;20918;-87
2022/04/16 05:07:16;;;;;;;3.50;3.20;;;8.60;99.90;;;;;;5033088;28;20668;-86
2022/04/16 05:09:42;;;;;;;3.20;2.90;;;8.60;99.90;;;;;;5039886;28;20190;-87
2022/04/16 05:12:08;;;;;;;3.30;2.80;;;8.70;99.90;;;;;;5046617;28;20448;-87
2022/04/16 05:14:33;;;;;;;3.37;3.07;;;8.80;99.90;;;;;;5016828;28;20613;-87
2022/04/16 05:16:59;;;;;;;3.20;3.00;;;9.00;99.90;;;;;;5004039;28;20226;-86
2022/04/16 05:19:25;;;;;;;3.00;2.77;;;8.90;99.90;;;;;;5021420;28;20188;-86
2022/04/16 05:21:50;;;;;;;2.53;2.33;;;9.00;99.90;;;;;;5009975;28;20581;-87
2022/04/16 05:24:16;;;;;;;3.50;2.90;;;9.00;99.90;;;;;;5019441;28;20191;-86
2022/04/16 05:26:41;;;;;;;3.43;3.20;;;8.90;99.90;;;;;;5034286;28;20239;-88
2022/04/16 05:29:10;;;;;;;3.13;2.87;;;8.90;99.90;;;;;;5025791;28;20770;-89
2022/04/16 05:31:36;;;;;;;2.83;2.63;;;9.00;99.90;;;;;;5041607;28;20183;-89
2022/04/16 05:34:18;;;;;;;4.93;3.27;;;9.00;99.90;;;;;;5032356;28;20448;-89
2022/04/16 05:36:45;;;;;;;3.40;3.10;;;9.00;99.90;;;;;;5032161;28;20576;-90
2022/04/16 05:39:11;;;;;;;3.37;3.17;;;9.00;99.90;;;;;;5017345;28;20437;-89
2022/04/16 05:41:37;;;;;;;3.70;3.40;;;9.00;99.90;;;;;;5034775;28;20456;-87
2022/04/16 05:44:04;;;;;;;3.27;2.97;;;9.00;99.90;;;;;;5019332;28;20473;-85
2022/04/16 05:46:30;;;;;;;3.57;3.27;;;9.10;99.90;;;;;;5002405;28;20456;-85
2022/04/16 05:48:56;;;;;;;3.60;3.30;;;9.10;99.90;;;;;;5019890;28;20491;-86
2022/04/16 05:51:40;;;;;;;3.57;3.27;;;9.20;99.90;;;;;;5036281;28;20903;-92
2022/04/16 05:54:06;;;;;;;4.23;3.70;;;9.30;99.90;;;;;;5008995;28;20769;-90
2022/04/16 05:56:36;;;;;;;4.30;3.90;;;9.20;99.90;;;;;;4995887;28;20486;-89
2022/04/16 05:59:25;;;;;;;5.93;4.10;;;9.30;99.90;;;;;;5030177;28;20477;-90
2022/04/16 06:01:50;;;;;;;4.13;3.43;;;9.30;99.90;;;;;;5030740;28;20457;-88
2022/04/16 06:04:17;;;;;;;4.60;3.63;;;9.10;99.90;;;;;;5032605;28;21033;-88
2022/04/16 06:06:43;;;;;;;3.80;3.50;;;9.00;99.90;;;;;;5021957;28;20191;-91
2022/04/16 06:09:09;;;;;;;3.83;3.40;;;9.10;99.90;;;;;;5017993;28;20887;-90
2022/04/16 06:11:35;;;;;;;4.17;3.77;;;9.10;99.90;;;;;;5035684;28;20191;-88
2022/04/16 06:14:00;;;;;;;3.93;3.53;;;9.20;99.90;;;;;;5033030;28;20190;-91
2022/04/16 06:16:26;;;;;;;4.23;3.90;;;9.30;99.90;;;;;;5027251;28;20873;-87
2022/04/16 06:19:00;;;;;;;4.73;4.30;;;9.30;99.90;;;;;;5030368;28;20419;-88
2022/04/16 06:21:38;;;;;;;3.67;3.37;;;9.30;99.90;;;;;;5029357;28;20214;-91
2022/04/16 06:24:21;;;;;;;4.03;3.60;;;9.30;99.90;;;;;;5000694;28;20448;-88
2022/04/16 06:26:47;;;;;;;3.93;3.63;;;9.50;99.90;;;;;;5009324;28;20199;-89
2022/04/16 06:29:14;;;;;;;5.10;4.40;;;9.50;99.90;;;;;;5019735;28;20440;-89
2022/04/16 06:31:40;;;;;;;4.37;3.97;;;9.60;99.90;;;;;;5012479;28;20447;-90
2022/04/16 06:34:06;;;;;;;3.70;3.40;;;9.60;99.90;;;;;;4997649;28;20493;-89
2022/04/16 06:36:34;;;;;;;4.60;4.20;;;9.60;99.90;;;;;;5003205;28;20477;-89
2022/04/16 06:39:00;;;;;;;4.70;3.60;;;9.70;99.90;;;;;;5032025;28;20546;-92
2022/04/16 06:41:25;;;;;;;4.07;3.67;;;9.70;99.90;;;;;;5022614;28;20191;-89
2022/04/16 06:43:51;;;;;;;3.67;3.37;;;9.90;99.90;;;;;;5039174;28;20225;-91
2022/04/16 06:46:16;;;;;;;4.30;3.90;;;10.20;99.90;;;;;;5023401;28;20415;-91
2022/04/16 06:48:42;;;;;;;4.27;3.50;;;10.20;99.90;;;;;;5041662;28;20743;-90
2022/04/16 06:51:07;;;;;;;4.90;3.77;;;10.10;99.90;;;;;;5043245;28;20206;-90
2022/04/16 06:53:33;;;;;;;5.87;4.70;;;9.70;99.90;;;;;;5040247;28;20218;-91
2022/04/16 06:56:00;;;;;;;4.57;4.10;;;9.80;99.90;;;;;;5020330;28;20191;-91
2022/04/16 06:58:28;;;;;;;3.87;3.57;;;9.70;99.90;;;;;;5035921;28;20660;-91
2022/04/16 07:00:54;;;;;;;4.40;4.00;;;9.70;99.90;;;;;;5043094;28;20441;-91
2022/04/16 07:03:20;;;;;;;4.37;4.00;;;9.90;99.90;;;;;;5029767;28;20450;-89
2022/04/16 07:05:46;;;;;;;5.97;4.93;;;10.00;99.90;;;;;;5036870;28;21110;-89
2022/04/16 07:08:12;;;;;;;4.73;3.87;;;10.10;99.90;;;;;;5029516;28;20661;-88
2022/04/16 07:10:39;;;;;;;4.30;3.90;;;10.20;99.90;;;;;;5024825;28;20444;-90
2022/04/16 07:13:05;;;;;;;4.03;3.73;;;10.20;99.90;;;;;;5014022;28;20506;-90
2022/04/16 07:15:33;;;;;;;4.10;3.70;;;10.30;99.90;;;;;;5022008;28;20457;-90
2022/04/16 07:17:59;;;;;;;4.50;4.07;;;10.30;99.90;;;;;;5013512;28;20479;-90
2022/04/16 07:20:24;;;;;;;4.50;4.10;;;10.40;99.90;;;;;;5033466;28;21532;-87
2022/04/16 07:22:50;;;;;;;8.90;4.07;;;10.60;99.90;;;;;;5012849;28;20721;-89
2022/04/16 07:25:15;;;;;;;4.60;4.20;;;10.60;99.90;;;;;;5017925;28;20468;-89
2022/04/16 07:27:43;;;;;;;4.93;4.43;;;10.60;99.90;;;;;;5023003;28;20182;-89
2022/04/16 07:30:09;;;;;;;4.40;4.00;;;10.60;99.90;;;;;;5028191;28;20186;-89
2022/04/16 07:32:36;;;;;;;4.70;4.07;;;10.70;99.90;;;;;;5042792;28;20481;-89
2022/04/16 07:35:03;;;;;;;4.60;4.10;;;10.80;99.90;;;;;;5019863;28;20579;-87
2022/04/16 07:37:29;;;;;;;4.70;4.20;;;10.70;99.90;;;;;;5020170;28;20473;-89
2022/04/16 07:39:57;;;;;;;5.30;4.80;;;10.70;99.90;;;;;;5031903;28;20440;-90
2022/04/16 07:42:32;;;;;;;4.27;3.87;;;10.50;99.90;;;;;;5031015;28;20755;-90
2022/04/16 07:45:00;;;;;;;4.80;4.40;;;10.60;99.90;;;;;;5035247;28;20995;-91
2022/04/16 07:47:39;;;;;;;5.60;4.20;;;10.70;99.90;;;;;;5061003;28;20442;-90
2022/04/16 07:50:05;;;;;;;4.63;4.23;;;10.70;99.90;;;;;;5033892;28;20442;-88
2022/04/16 07:52:31;;;;;;;5.73;4.53;;;10.90;99.90;;;;;;5045029;28;20621;-88
2022/04/16 07:54:56;;;;;;;4.73;4.33;;;11.20;99.90;;;;;;5025016;28;20457;-88
2022/04/16 07:57:22;;;;;;;6.10;4.90;;;10.90;99.90;;;;;;5030332;28;20256;-89
2022/04/16 07:59:49;;;;;;;5.57;4.97;;;10.90;99.90;;;;;;5041907;28;20792;-89
2022/04/16 08:02:15;;;;;;;7.07;5.37;;;10.80;99.90;;;;;;5044714;28;20190;-92
2022/04/16 08:04:41;;;;;;;5.80;5.17;;;10.80;99.90;;;;;;5048019;28;20819;-91
2022/04/16 08:07:07;;;;;;;5.77;5.10;;;10.80;99.90;;;;;;5021484;28;20678;-85
2022/04/16 08:09:32;;;;;;;6.67;5.97;;;10.90;99.90;;;;;;5048328;28;20206;-86
2022/04/16 08:11:58;;;;;;;5.60;5.10;;;10.90;99.90;;;;;;5040708;28;20182;-86
2022/04/16 08:14:25;;;;;;;6.53;5.93;;;11.00;99.90;;;;;;5032942;28;20194;-87
2022/04/16 08:16:50;;;;;;;5.80;5.20;;;11.10;99.90;;;;;;5041035;28;20502;-88
2022/04/16 08:19:16;;;;;;;5.47;4.97;;;11.20;99.90;;;;;;5050927;28;20444;-88
2022/04/16 08:21:42;;;;;;;5.80;5.23;;;11.20;99.90;;;;;;5027250;28;20190;-86
2022/04/16 08:24:22;;;;;;;6.80;6.10;;;11.10;99.90;;;;;;5035074;28;21398;-88
2022/04/16 08:26:48;;;;;;;6.40;5.80;;;11.20;99.90;;;;;;5027008;28;20233;-87
2022/04/16 08:29:13;;;;;;;8.10;6.10;;;11.10;99.90;;;;;;5049829;28;20434;-89
2022/04/16 08:31:39;;;;;;;7.13;5.20;;;11.20;99.90;;;;;;5045375;28;20436;-86
2022/04/16 08:34:04;;;;;;;8.70;5.90;;;11.30;99.90;;;;;;5043132;28;20269;-87
2022/04/16 08:36:30;;;;;;;7.10;6.30;;;11.20;99.90;;;;;;5040368;28;20219;-88
2022/04/16 08:38:55;;;;;;;6.03;5.43;;;11.30;99.90;;;;;;5045368;28;20189;-88
2022/04/16 08:41:30;;;;;;;6.70;5.50;;;11.30;99.90;;;;;;5054001;28;20271;-89
2022/04/16 08:44:04;;;;;;;7.73;5.67;;;11.60;99.90;;;;;;5020566;28;20269;-89
2022/04/16 08:46:36;;;;;;;7.30;6.23;;;11.70;99.90;;;;;;5034166;28;20544;-88
2022/04/16 08:49:27;;;;;;;6.40;5.70;;;11.60;99.90;;;;;;5041765;28;21276;-87
2022/04/16 08:51:55;;;;;;;6.33;5.40;;;11.70;99.90;;;;;;5043061;28;20510;-86
2022/04/16 08:54:21;;;;;;;6.60;5.77;;;11.70;99.90;;;;;;5041807;28;20571;-87
2022/04/16 08:56:46;;;;;;;7.00;5.60;;;11.90;99.90;;;;;;5041747;28;20482;-87
2022/04/16 08:59:12;;;;;;;7.57;6.40;;;12.00;99.90;;;;;;5021382;28;20449;-86
2022/04/16 09:01:40;;;;;;;6.10;5.40;;;12.10;99.90;;;;;;5018336;28;20614;-84
2022/04/16 09:04:08;;;;;;;6.27;5.67;;;12.10;99.90;;;;;;5022523;28;20449;-85
2022/04/16 09:06:33;;;;;;;6.60;6.00;;;12.20;99.90;;;;;;5028358;28;20183;-85
2022/04/16 09:09:09;;;;;;;6.10;5.50;;;12.10;99.90;;;;;;5026834;28;20472;-88
2022/04/16 09:11:36;;;;;;;6.17;5.50;;;11.90;99.90;;;;;;5038903;28;20199;-88
2022/04/16 09:14:04;;;;;;;6.50;5.70;;;12.00;99.90;;;;;;5037650;28;20492;-88
2022/04/16 09:16:31;;;;;;;6.33;5.37;;;12.00;99.90;;;;;;5030346;28;20210;-87
2022/04/16 09:18:59;;;;;;;6.10;5.53;;;11.70;99.90;;;;;;5021749;28;20468;-87
2022/04/16 09:21:30;;;;;;;6.17;5.63;;;11.70;99.90;;;;;;5029535;28;20460;-88
2022/04/16 09:24:00;;;;;;;5.20;4.70;;;11.90;99.90;;;;;;5039629;28;20442;-85
2022/04/16 09:26:36;;;;;;;5.90;5.40;;;11.90;99.90;;;;;;5038115;28;20453;-85
2022/04/16 09:29:14;;;;;;;5.50;5.00;;;11.90;99.90;;;;;;5030933;28;20860;-85
2022/04/16 09:31:41;;;;;;;5.40;4.77;;;11.90;99.90;;;;;;5019598;28;20574;-86
2022/04/16 09:34:15;;;;;;;9.73;5.10;;;11.70;99.90;;;;;;5036323;28;20442;-85
2022/04/16 09:36:43;;;;;;;6.07;5.47;;;11.60;99.90;;;;;;5028825;28;20610;-86
2022/04/16 09:39:10;;;;;;;5.40;4.90;;;11.70;99.90;;;;;;5045417;28;20813;-86
2022/04/16 09:41:38;;;;;;;5.70;5.20;;;11.70;99.90;;;;;;5037506;28;20468;-87
2022/04/16 09:44:15;;;;;;;6.33;5.00;;;11.70;99.90;;;;;;5037097;28;20790;-87
2022/04/16 09:46:44;;;;;;;5.60;5.10;;;11.80;99.90;;;;;;5039026;28;20448;-86
2022/04/16 09:49:13;;;;;;;6.53;5.90;;;12.00;99.90;;;;;;5042470;28;20465;-88
2022/04/16 09:51:42;;;;;;;6.30;5.70;;;12.20;99.90;;;;;;5027700;28;20449;-88
2022/04/16 09:54:12;;;;;;;8.27;7.47;;;12.30;99.90;;;;;;5040345;28;20462;-86
2022/04/16 09:56:39;;;;;;;6.83;6.20;;;12.50;99.90;;;;;;5024818;28;20919;-87
2022/04/16 09:59:07;;;;;;;7.00;6.00;;;12.30;99.90;;;;;;5023360;28;20433;-87
2022/04/16 10:01:33;;;;;;;8.70;6.20;;;12.50;99.90;;;;;;5032043;28;21152;-86
2022/04/16 10:04:03;;;;;;;6.63;6.03;;;12.20;99.90;;;;;;5025923;28;20873;-86
2022/04/16 10:06:30;;;;;;;7.30;6.37;;;12.00;99.90;;;;;;5039801;28;20475;-86
2022/04/16 10:08:58;;;;;;;7.37;6.60;;;12.20;99.90;;;;;;5045662;28;20456;-87
2022/04/16 10:14:25;;;;;;;7.13;6.47;;;11.80;99.90;;;;;;5042975;28;20860;-84
2022/04/16 10:17:05;;;;;;;7.13;6.40;;;12.00;99.90;;;;;;5019306;28;20471;-86
2022/04/16 10:19:45;;;;;;;7.80;7.00;;;11.80;99.90;;;;;;5022529;28;20827;-87
2022/04/16 10:22:25;;;;;;;7.57;6.60;;;11.70;99.90;;;;;;5024787;28;20448;-87
2022/04/16 10:24:56;;;;;;;8.07;7.27;;;11.60;99.90;;;;;;5039046;28;20437;-86
2022/04/16 10:27:24;;;;;;;7.00;6.30;;;11.50;99.90;;;;;;5031595;28;20449;-90
2022/04/16 10:29:51;;;;;;;6.63;6.03;;;11.50;99.90;;;;;;5027902;28;20441;-88
2022/04/16 10:32:17;;;;;;;7.40;6.70;;;11.70;99.90;;;;;;5025248;28;20452;-89
2022/04/16 10:34:44;;;;;;;6.10;5.60;;;12.00;99.90;;;;;;5017915;28;20440;-88
2022/04/16 10:37:21;;;;;;;6.97;6.27;;;12.50;99.90;;;;;;5018991;28;20469;-87
2022/04/16 10:39:50;;;;;;;5.93;5.43;;;13.10;99.90;;;;;;5030533;28;20470;-87
2022/04/16 10:42:15;;;;;;;6.60;5.87;;;13.10;99.80;;;;;;5032208;28;20448;-88
2022/04/16 10:44:48;;;;;;;6.30;5.70;;;13.50;99.90;;;;;;5034406;28;20465;-87
2022/04/16 10:47:14;;;;;;;7.73;6.93;;;13.90;99.90;;;;;;5028550;28;20678;-87
2022/04/16 10:49:41;;;;;;;6.77;6.17;;;14.30;99.90;;;;;;5015763;28;20465;-84
2022/04/16 10:52:28;;;;;;;7.10;6.47;;;14.30;98.40;;;;;;5038380;28;21026;-84
2022/04/16 10:55:01;;;;;;;7.67;6.97;;;14.10;97.50;;;;;;5016417;28;20454;-87
2022/04/16 10:57:36;;;;;;;6.37;5.63;;;13.50;97.40;;;;;;5030715;28;21034;-87
2022/04/16 11:00:17;;;;;;;6.40;5.80;;;13.30;97.80;;;;;;5051458;28;21174;-87
2022/04/16 11:02:45;;;;;;;10.07;8.17;;;13.20;97.50;;;;;;5052745;28;20524;-87
2022/04/16 11:05:13;;;;;;;7.13;6.10;;;13.10;99.00;;;;;;5031694;28;20433;-89
2022/04/16 11:07:42;;;;;;;7.07;6.47;;;13.30;98.30;;;;;;5031729;28;20803;-88
2022/04/16 11:10:11;;;;;;;6.13;5.53;;;12.90;98.60;;;;;;5028503;28;20229;-88
2022/04/16 11:12:41;;;;;;;6.00;5.47;;;12.80;99.80;;;;;;5020905;28;20449;-88
2022/04/16 11:15:24;;;;;;;6.07;5.47;;;13.50;97.90;;;;;;5008197;28;20974;-86
2022/04/16 11:17:57;;;;;;;6.03;5.53;;;14.70;96.40;;;;;;5007587;28;20554;-85
2022/04/16 11:20:27;;;;;;;6.77;6.27;;;15.00;94.30;;;;;;5013799;28;20514;-86
2022/04/16 11:22:53;;;;;;;6.40;5.80;;;15.50;94.40;;;;;;5021564;28;20449;-86
2022/04/16 11:34:14;;;;;;;6.50;5.97;;;16.00;91.70;;;;;;5026213;28;20437;-86
2022/04/16 11:34:17;;;;;;;4.87;4.20;;;14.50;93.70;;;;;;5030979;28;20972;-86
2022/04/16 11:37:00;;;;;;;4.53;4.13;;;14.20;94.00;;;;;;5013043;28;20498;-86
2022/04/16 11:39:37;;;;;;;4.93;4.30;;;14.10;93.00;;;;;;5020864;28;20454;-85
2022/04/16 11:42:07;;;;;;;4.47;4.07;;;14.10;94.10;;;;;;5031395;28;20469;-85
2022/04/16 11:44:44;;;;;;;3.90;3.60;;;14.30;93.20;;;;;;5018998;28;20959;-88
2022/04/16 11:47:14;;;;;;;4.20;3.80;;;14.80;92.10;;;;;;5027508;28;20437;-87
2022/04/16 11:49:49;;;;;;;5.03;4.57;;;14.80;92.10;;;;;;5024181;28;20562;-87
2022/04/16 11:52:15;;;;;;;6.17;5.20;;;14.50;92.10;;;;;;5038657;28;20958;-86
2022/04/16 11:54:43;;;;;;;6.20;5.60;;;13.90;94.30;;;;;;5041426;28;20461;-86
2022/04/16 11:57:19;;;;;;;6.00;5.50;;;13.70;94.90;;;;;;5025067;28;20528;-86
2022/04/16 12:00:02;;;;;;;5.73;5.23;;;13.30;94.50;;;;;;5035816;28;20436;-87
2022/04/16 12:02:32;;;;;;;5.70;5.10;;;12.90;96.20;;;;;;5023560;28;20449;-87
2022/04/16 12:05:15;;;;;;;6.63;5.20;;;13.00;96.40;;;;;;5036919;28;20441;-85
2022/04/16 12:07:48;;;;;;;5.70;5.20;;;13.20;95.60;;;;;;5023624;28;20438;-84
2022/04/16 12:10:15;;;;;;;5.00;4.57;;;13.10;95.20;;;;;;5030479;28;20778;-86
2022/04/16 12:13:06;;;;;;;5.80;5.20;;;13.20;94.60;;;;;;5016872;28;21123;-85
2022/04/16 12:15:34;;;;;;;4.57;4.17;;;13.70;94.50;;;;;;4994266;28;20469;-85
2022/04/16 12:18:22;;;;;;;4.80;4.30;;;14.30;93.70;;;;;;5012448;28;20777;-87
2022/04/16 12:20:48;;;;;;;5.63;5.07;;;15.60;91.80;;;;;;5024214;28;20476;-85
2022/04/16 12:23:24;;;;;;;5.33;4.83;;;15.60;89.00;;;;;;5015993;28;20449;-85
2022/04/16 12:25:50;;;;;;;5.23;4.83;;;15.30;90.70;;;;;;5036190;28;20454;-85
2022/04/16 12:28:16;;;;;;;4.97;4.47;;;15.20;90.40;;;;;;5018738;28;20445;-86
2022/04/16 12:30:50;;;;;;;5.83;5.33;;;14.70;90.10;;;;;;5007785;28;20499;-85
2022/04/16 12:33:16;;;;;;;5.50;5.00;;;14.30;91.10;;;;;;5030940;28;21025;-85
2022/04/16 12:35:47;;;;;;;9.40;4.77;;;14.60;90.80;;;;;;5021536;28;20941;-84
2022/04/16 12:38:17;;;;;;;5.80;5.20;;;15.40;91.30;;;;;;5021579;28;20517;-86
2022/04/16 12:40:44;;;;;;;5.60;5.10;;;15.60;90.30;;;;;;5010775;28;23028;-88
2022/04/16 12:43:09;;;;;;;8.27;4.87;;;15.70;89.90;;;;;;5020789;28;20507;-87
2022/04/16 12:45:37;;;;;;;5.93;5.33;;;15.30;90.10;;;;;;5031490;28;20766;-87
2022/04/16 12:48:03;;;;;;;4.57;4.10;;;16.10;90.40;;;;;;5012742;28;20509;-87
2022/04/16 12:50:31;;;;;;;5.23;4.80;;;16.70;89.20;;;;;;5001833;28;20191;-87
2022/04/16 12:52:57;;;;;;;5.70;5.20;;;17.00;88.00;;;;;;5011103;28;20664;-87
2022/04/16 12:55:25;;;;;;;6.50;5.90;;;16.00;88.30;;;;;;5030145;28;20523;-89
2022/04/16 12:57:53;;;;;;;6.37;5.77;;;15.50;89.10;;;;;;5028507;28;20519;-89
2022/04/16 13:00:18;;;;;;;6.10;5.50;;;15.40;91.30;;;;;;5006186;28;21010;-89
2022/04/16 13:02:45;;;;;;;6.17;5.57;;;16.30;91.10;;;;;;5029630;28;20518;-88
2022/04/16 13:05:19;;;;;;;8.83;7.90;;;16.90;86.90;;;;;;5003560;28;20210;-89
2022/04/16 13:08:36;;;;;;;7.73;6.70;;;16.80;86.50;;;;;;5021306;28;20574;-90
2022/04/16 13:11:02;;;;;;;7.87;6.70;;;16.30;90.00;;;;;;5028633;28;20906;-89
2022/04/16 13:13:27;;;;;;;7.43;6.70;;;16.10;90.30;;;;;;5023561;28;20428;-86
2022/04/16 13:16:19;;;;;;;7.23;6.10;;;16.60;91.30;;;;;;5039874;28;20198;-89
2022/04/16 13:21:52;;;;;;;6.83;5.90;;;16.20;88.90;;;;;;5014962;28;20655;-90
2022/04/16 13:24:18;;;;;;;7.20;6.07;;;15.60;88.50;;;;;;5018672;28;20822;-90